Stations météo

réclame
Mon MeteoGroup
Humain, Belgique (6472): Température de l'air & dewpoint: 13.06.2019 11:00:00 - 19.06.2019 11:00:00 (CEST)Humain, Belgique (6472): Vitesse du vent & gusts: 13.06.2019 11:00:00 - 19.06.2019 11:00:00 (CEST)Humain, Belgique (6472): Direction du vent: 13.06.2019 11:00:00 - 19.06.2019 11:00:00 (CEST)Humain, Belgique (6472): reduced air pressure: 13.06.2019 11:00:00 - 19.06.2019 11:00:00 (CEST)Humain, Belgique (6472): Ensoleillement: 13.06.2019 11:00:00 - 19.06.2019 11:00:00 (CEST)Humain, Belgique (6472): Quantités de précipitations: 13.06.2019 11:00:00 - 19.06.2019 11:00:00 (CEST)
Date & Time tt [°C] td [°C] ff [km/h] ff [knt] fx [km/h] fx [knt] dd ppp [hPa] sd [min] rr [mm]
19.06.2019 11:00:00 - - - - - - - - - -
19.06.2019 10:00:00 22,2 14,1 15 8 31 17 S 1009,0 60 0,0
19.06.2019 09:00:00 20,0 13,4 15 8 25 13 S 1008,6 34 0,0
19.06.2019 08:00:00 20,3 13,7 7 4 18 10 S 1008,3 60 0,0
19.06.2019 07:00:00 18,9 13,2 10 5 19 10 E 1008,0 59 0,0
19.06.2019 06:00:00 18,3 12,7 15 8 19 10 ESE 1008,5 0 0,0
19.06.2019 05:00:00 17,9 12,7 11 6 14 8 E 1009,6 0 0,0
19.06.2019 04:00:00 17,4 12,6 9 5 14 8 E 1010,0 0 0,0
19.06.2019 03:00:00 17,6 12,1 9 5 12 6 E 1010,6 0 0,0
19.06.2019 02:00:00 17,5 12,2 11 6 13 7 E 1011,0 0 0,0
19.06.2019 01:00:00 18,3 12,1 10 6 14 8 E 1011,5 0 0,0
19.06.2019 00:00:00 18,1 12,5 9 5 13 7 E 1012,0 0 0,0
18.06.2019 23:00:00 19,8 12,8 9 5 10 6 E 1012,3 0 0,0
18.06.2019 22:00:00 21,2 11,6 6 3 10 5 SE 1012,4 0 0,0
18.06.2019 21:00:00 22,4 11,4 6 4 14 7 S 1012,3 46 0,0
18.06.2019 20:00:00 23,7 11,1 7 4 16 9 S 1011,9 55 0,0
18.06.2019 19:00:00 25,1 13,2 6 4 16 8 SSW 1011,9 52 0,0
18.06.2019 18:00:00 25,4 12,4 9 5 14 8 SW 1012,3 57 0,0
18.06.2019 17:00:00 25,7 12,6 5 3 12 7 S 1013,0 39 0,0
18.06.2019 16:00:00 25,1 11,9 4 2 10 6 S 1013,5 60 0,0
18.06.2019 15:00:00 25,0 12,1 4 2 9 5 NE 1013,9 52 0,0
18.06.2019 14:00:00 24,5 13,5 7 4 13 7 WNW 1014,1 25 0,0
18.06.2019 13:00:00 24,2 11,7 4 2 13 7 W 1014,5 53 0,0
18.06.2019 12:00:00 23,1 11,9 6 3 12 6 NE 1014,8 60 0,0
18.06.2019 11:00:00 22,9 12,5 7 4 10 5 NNE 1015,1 60 0,0
18.06.2019 10:00:00 20,2 15,1 4 2 7 4 N 1015,9 60 0,0
18.06.2019 09:00:00 18,4 13,3 5 3 8 4 ENE 1016,2 60 0,0
18.06.2019 08:00:00 16,1 12,8 4 2 12 6 ENE 1016,9 60 0,0
18.06.2019 07:00:00 13,4 10,5 10 5 12 6 E 1017,1 60 0,0
18.06.2019 06:00:00 12,6 10,1 8 4 11 6 E 1017,2 2 0,0
18.06.2019 05:00:00 13,1 10,7 10 5 13 7 E 1017,2 0 0,0
18.06.2019 04:00:00 14,1 10,9 5 3 12 6 ESE 1017,6 0 0,0
18.06.2019 03:00:00 13,8 10,4 5 3 9 5 ESE 1018,1 0 0,0
18.06.2019 02:00:00 15,4 10,7 4 2 13 7 SSE 1018,0 0 0,0
18.06.2019 01:00:00 15,8 10,9 9 5 10 5 E 1018,0 0 0,0
18.06.2019 00:00:00 17,7 11,0 4 2 9 5 W 1018,1 0 0,0
17.06.2019 23:00:00 18,9 10,7 8 4 9 5 E 1017,7 0 0,0
17.06.2019 22:00:00 21,7 9,9 4 2 5 3 ESE 1017,2 16 0,0
17.06.2019 21:00:00 22,5 11,1 4 2 7 4 SSE 1017,2 60 0,0
17.06.2019 20:00:00 23,0 12,3 7 4 11 6 ESE 1017,2 60 0,0
17.06.2019 19:00:00 23,9 10,7 6 3 17 9 SE 1017,6 55 0,0
17.06.2019 18:00:00 24,4 11,1 7 4 12 6 SE 1017,7 44 0,0
17.06.2019 17:00:00 23,7 10,2 5 3 16 8 SSE 1018,3 56 0,0
17.06.2019 16:00:00 23,7 10,5 7 4 12 6 SW 1018,5 58 0,0
17.06.2019 15:00:00 23,2 10,6 4 2 12 7 NNE 1019,0 60 0,0
17.06.2019 14:00:00 22,5 12,4 7 4 14 8 ENE 1019,6 60 0,0
17.06.2019 13:00:00 21,7 10,5 6 3 16 9 NNE 1020,2 60 0,0
17.06.2019 12:00:00 21,5 11,2 7 4 19 10 SSE 1020,6 60 0,0
17.06.2019 11:00:00 20,2 11,2 12 6 18 10 S 1021,1 60 0,0
17.06.2019 10:00:00 19,1 11,9 4 2 11 6 S 1021,6 60 0,0
17.06.2019 09:00:00 17,2 12,7 7 4 10 5 E 1021,9 60 0,0
17.06.2019 08:00:00 15,0 12,0 4 2 12 6 E 1022,1 60 0,0
17.06.2019 07:00:00 12,1 10,4 10 5 13 7 E 1022,4 60 0,0
17.06.2019 06:00:00 10,4 9,2 11 6 13 7 E 1022,9 7 0,0
17.06.2019 05:00:00 10,3 8,8 12 6 15 8 E 1022,7 0 0,0
17.06.2019 04:00:00 10,9 9,3 15 8 17 9 E 1022,9 0 0,0
17.06.2019 03:00:00 11,2 9,5 14 7 15 8 E 1023,2 0 0,0
17.06.2019 02:00:00 11,6 9,7 14 8 16 8 E 1023,2 0 0,0
17.06.2019 01:00:00 12,5 10,2 6 3 11 6 ESE 1023,1 0 0,0
17.06.2019 00:00:00 13,3 10,3 7 4 11 6 ESE 1022,9 0 0,0
16.06.2019 23:00:00 16,1 10,2 4 2 9 5 SE 1022,7 0 0,0
16.06.2019 22:00:00 16,9 9,7 8 5 11 6 SW 1022,4 38 0,0
16.06.2019 21:00:00 17,5 9,9 5 3 10 5 SW 1022,1 10 0,0
16.06.2019 20:00:00 18,9 10,4 7 4 17 9 SW 1021,9 54 0,0
16.06.2019 19:00:00 19,3 10,7 10 5 18 10 SW 1021,8 26 0,0
16.06.2019 18:00:00 18,8 10,6 7 4 17 9 WSW 1021,9 30 0,0
16.06.2019 17:00:00 18,8 9,8 8 4 16 9 WSW 1022,0 9 0,0
16.06.2019 16:00:00 18,2 9,8 12 6 26 14 SSW 1022,2 31 0,0
16.06.2019 15:00:00 18,8 10,7 16 9 28 15 SSW 1022,2 41 0,0
16.06.2019 14:00:00 17,0 10,2 18 10 28 15 SW 1022,4 27 0,0
16.06.2019 13:00:00 17,4 11,1 16 8 29 15 SW 1022,2 22 0,0
16.06.2019 12:00:00 16,0 10,3 16 9 25 14 WSW 1022,2 26 0,0
16.06.2019 11:00:00 15,5 10,2 13 7 28 15 SW 1022,1 7 0,0
16.06.2019 10:00:00 15,2 10,7 17 9 27 14 SSW 1021,9 40 0,0
16.06.2019 09:00:00 14,2 10,2 18 10 29 15 SW 1021,8 57 0,0
16.06.2019 08:00:00 13,8 10,2 14 8 20 11 SSW 1021,4 43 0,0
16.06.2019 07:00:00 12,6 9,8 10 5 15 8 SSW 1021,2 17 0,0
16.06.2019 06:00:00 11,5 8,5 9 5 11 6 SSW 1021,2 0 0,0
16.06.2019 05:00:00 11,6 9,3 6 3 11 6 S 1020,8 0 0,0
16.06.2019 04:00:00 11,9 8,5 8 4 10 5 SSE 1020,4 0 0,0
16.06.2019 03:00:00 12,7 9,4 6 4 9 5 S 1020,3 0 0,0
16.06.2019 02:00:00 12,6 9,6 7 4 12 7 SSE 1020,4 0 0,0
16.06.2019 01:00:00 12,8 8,5 4 2 14 7 S 1020,1 0 0,0
16.06.2019 00:00:00 13,9 9,0 9 5 15 8 SW 1019,1 0 0,0
15.06.2019 23:00:00 15,3 9,2 11 6 18 10 SW 1018,4 0 0,0
15.06.2019 22:00:00 16,7 9,8 10 5 16 9 SW 1017,7 13 0,0
15.06.2019 21:00:00 17,6 10,0 11 6 21 11 SW 1017,3 25 0,0
15.06.2019 20:00:00 18,5 10,0 11 6 29 15 WSW 1016,8 31 0,0
15.06.2019 19:00:00 20,0 10,4 19 10 30 16 WSW 1016,4 45 0,0
15.06.2019 18:00:00 19,7 11,4 13 7 29 16 WSW 1016,4 37 0,0
15.06.2019 17:00:00 19,3 10,5 15 8 32 18 SW 1016,5 30 0,0
15.06.2019 16:00:00 19,9 9,6 16 9 29 15 SW 1016,4 49 0,0
15.06.2019 15:00:00 19,9 10,4 18 10 31 17 WSW 1016,2 40 0,0
15.06.2019 14:00:00 20,1 10,1 18 10 37 20 WSW 1016,5 54 0,0
15.06.2019 13:00:00 19,5 10,6 21 11 36 19 WSW 1016,0 52 0,0
15.06.2019 12:00:00 17,8 12,7 19 10 36 19 WSW 1015,7 44 0,0
15.06.2019 11:00:00 16,3 14,0 15 8 31 17 SW 1015,2 16 0,0
15.06.2019 10:00:00 15,6 14,6 15 8 23 12 SW 1014,7 0 0,0
15.06.2019 09:00:00 15,2 14,5 9 5 16 9 SW 1014,1 0 0,0
15.06.2019 08:00:00 14,9 14,2 11 6 29 16 WSW 1013,3 0 0,0
15.06.2019 07:00:00 14,8 14,2 15 8 23 13 WSW 1012,7 0 1,8
15.06.2019 06:00:00 14,7 14,0 9 5 14 8 S 1012,4 0 2,7
15.06.2019 05:00:00 14,7 14,1 5 3 14 8 SSE 1012,0 0 3,0
15.06.2019 04:00:00 15,0 14,3 5 3 10 5 SW 1012,1 0 1,7
15.06.2019 03:00:00 15,0 14,1 4 2 9 5 E 1011,6 0 2,1
15.06.2019 02:00:00 15,3 14,2 4 2 11 6 E 1012,2 0 2,2
15.06.2019 01:00:00 15,5 14,1 6 3 9 5 E 1012,4 0 0,5
15.06.2019 00:00:00 16,1 13,8 0 0 15 8 N 1013,2 0 0,7
14.06.2019 23:00:00 17,1 13,1 10 5 14 8 S 1013,9 0 0,0
14.06.2019 22:00:00 18,7 12,3 9 5 13 7 SE 1012,9 0 0,0
14.06.2019 21:00:00 20,1 12,1 4 2 9 5 S 1012,3 0 0,0
14.06.2019 20:00:00 22,1 11,9 4 2 5 3 N 1012,3 33 0,0
14.06.2019 19:00:00 23,1 10,1 4 2 13 7 NNW 1012,3 57 0,0
14.06.2019 18:00:00 22,5 10,9 6 3 13 7 SSW 1012,9 58 0,0
14.06.2019 17:00:00 23,2 10,6 5 3 16 9 SW 1013,2 59 0,0
14.06.2019 16:00:00 22,7 10,1 9 5 26 14 SW 1013,7 60 0,0
14.06.2019 15:00:00 22,5 10,9 15 8 32 17 SSW 1014,4 60 0,0
14.06.2019 14:00:00 21,8 11,1 11 6 - - SW 1014,8 24 -
14.06.2019 13:00:00 20,7 10,3 8 4 19 10 W 1015,4 58 0,0
14.06.2019 12:00:00 19,3 10,6 10 6 21 11 WSW 1015,7 60 0,0
14.06.2019 11:00:00 18,2 10,2 6 3 22 12 S 1015,3 44 0,0
14.06.2019 10:00:00 15,7 10,5 16 8 22 12 ESE 1015,6 28 0,0
14.06.2019 09:00:00 12,7 10,0 6 4 14 7 SSE 1016,7 1 0,0
14.06.2019 08:00:00 11,4 9,2 7 4 15 8 S 1016,0 0 0,0
14.06.2019 07:00:00 10,4 8,5 6 4 9 5 SE 1015,3 23 0,0
14.06.2019 06:00:00 10,2 8,1 6 3 17 9 ESE 1014,9 0 0,0
14.06.2019 05:00:00 10,4 8,2 16 8 18 10 E 1014,4 0 0,0
14.06.2019 04:00:00 10,7 8,1 15 8 18 10 E 1014,3 0 0,0
14.06.2019 03:00:00 11,2 7,6 14 8 17 9 E 1014,8 0 0,0
14.06.2019 02:00:00 11,8 7,5 11 6 14 8 E 1015,1 0 0,0
14.06.2019 01:00:00 12,5 8,2 9 5 16 9 S 1015,3 0 0,0
14.06.2019 00:00:00 13,1 8,6 8 4 19 10 S 1015,1 0 0,0
13.06.2019 23:00:00 12,8 9,1 13 7 20 11 S 1014,9 0 0,0
13.06.2019 22:00:00 13,8 8,7 11 6 25 13 S 1014,2 0 0,1
13.06.2019 21:00:00 15,4 8,0 16 8 39 21 SSW 1013,4 0 0,0
13.06.2019 20:00:00 16,0 8,0 25 14 43 23 S 1013,3 42 0,0
13.06.2019 19:00:00 16,3 9,1 24 13 44 24 S 1013,0 39 0,0
13.06.2019 18:00:00 15,3 8,8 27 14 60 33 S 1014,0 26 0,1
13.06.2019 17:00:00 17,7 9,4 27 14 67 36 S 1013,0 50 0,0
13.06.2019 16:00:00 17,5 7,5 32 17 67 36 S 1013,3 42 0,0
13.06.2019 15:00:00 16,3 8,5 34 19 53 29 SSW 1013,4 40 0,0
13.06.2019 14:00:00 16,0 8,2 27 14 - - SSW 1013,6 27 -
13.06.2019 13:00:00 14,8 7,7 25 14 50 27 SSW 1014,0 28 0,0
13.06.2019 12:00:00 14,8 7,0 29 16 58 32 S 1014,0 47 0,0
13.06.2019 11:00:00 13,5 8,0 26 14 40 21 SSW 1014,2 35 0,0

tt = Température de l'air
td = dewpoint
ff = Vitesse du vent
fx = gusts
dd = Direction du vent
ppp = reduced air pressure
sd = Ensoleillement
rr = Quantités de précipitations

stations d'obs. à proximité